sensor_id;sensor_type;location;lat;lon;timestamp;pressure;altitude;pressure_sealevel;temperature
74539;BMP180;66042;51.090;-115.340;2024-03-29T00:00:07;85654.00;;;2.70
74539;BMP180;66042;51.090;-115.340;2024-03-29T00:02:34;85659.20;;;2.60
74539;BMP180;66042;51.090;-115.340;2024-03-29T00:05:02;85658.60;;;2.56
74539;BMP180;66042;51.090;-115.340;2024-03-29T00:07:29;85670.40;;;2.50
74539;BMP180;66042;51.090;-115.340;2024-03-29T00:09:56;85672.80;;;2.50
74539;BMP180;66042;51.090;-115.340;2024-03-29T00:12:24;85673.60;;;2.40
74539;BMP180;66042;51.090;-115.340;2024-03-29T00:14:51;85677.80;;;2.40
74539;BMP180;66042;51.090;-115.340;2024-03-29T00:17:18;85682.00;;;2.36
74539;BMP180;66042;51.090;-115.340;2024-03-29T00:19:45;85687.20;;;2.30
74539;BMP180;66042;51.090;-115.340;2024-03-29T00:22:12;85691.20;;;2.30
74539;BMP180;66042;51.090;-115.340;2024-03-29T00:24:39;85693.80;;;2.20
74539;BMP180;66042;51.090;-115.340;2024-03-29T00:27:06;85697.60;;;2.10
74539;BMP180;66042;51.090;-115.340;2024-03-29T00:29:33;85699.20;;;2.10
74539;BMP180;66042;51.090;-115.340;2024-03-29T00:32:01;85697.60;;;2.02
74539;BMP180;66042;51.090;-115.340;2024-03-29T00:34:28;85699.80;;;1.92
74539;BMP180;66042;51.090;-115.340;2024-03-29T00:36:55;85701.00;;;1.90
74539;BMP180;66042;51.090;-115.340;2024-03-29T00:39:22;85702.80;;;1.80
74539;BMP180;66042;51.090;-115.340;2024-03-29T00:41:49;85701.80;;;1.78
74539;BMP180;66042;51.090;-115.340;2024-03-29T00:44:17;85704.00;;;1.70
74539;BMP180;66042;51.090;-115.340;2024-03-29T00:46:44;85709.80;;;1.70
74539;BMP180;66042;51.090;-115.340;2024-03-29T00:49:11;85711.20;;;1.60
74539;BMP180;66042;51.090;-115.340;2024-03-29T00:51:38;85717.00;;;1.60
74539;BMP180;66042;51.090;-115.340;2024-03-29T00:54:06;85718.80;;;1.56
74539;BMP180;66042;51.090;-115.340;2024-03-29T00:56:33;85719.00;;;1.50
74539;BMP180;66042;51.090;-115.340;2024-03-29T00:59:01;85722.40;;;1.48
74539;BMP180;66042;51.090;-115.340;2024-03-29T01:01:28;85712.80;;;1.40
74539;BMP180;66042;51.090;-115.340;2024-03-29T01:03:55;85711.20;;;1.38
74539;BMP180;66042;51.090;-115.340;2024-03-29T01:06:22;85722.20;;;1.30
74539;BMP180;66042;51.090;-115.340;2024-03-29T01:08:49;85734.00;;;1.30
74539;BMP180;66042;51.090;-115.340;2024-03-29T01:11:16;85738.60;;;1.30
74539;BMP180;66042;51.090;-115.340;2024-03-29T01:13:43;85738.80;;;1.30
74539;BMP180;66042;51.090;-115.340;2024-03-29T01:16:10;85743.20;;;1.24
74539;BMP180;66042;51.090;-115.340;2024-03-29T01:18:37;85743.80;;;1.20
74539;BMP180;66042;51.090;-115.340;2024-03-29T01:21:05;85745.40;;;1.20
74539;BMP180;66042;51.090;-115.340;2024-03-29T01:23:32;85750.20;;;1.12
74539;BMP180;66042;51.090;-115.340;2024-03-29T01:25:59;85751.00;;;1.10
74539;BMP180;66042;51.090;-115.340;2024-03-29T01:28:28;85754.60;;;1.10
74539;BMP180;66042;51.090;-115.340;2024-03-29T01:30:56;85759.80;;;1.10
74539;BMP180;66042;51.090;-115.340;2024-03-29T01:33:25;85759.00;;;1.10
74539;BMP180;66042;51.090;-115.340;2024-03-29T01:35:53;85762.00;;;1.10
74539;BMP180;66042;51.090;-115.340;2024-03-29T01:38:20;85763.00;;;1.10
74539;BMP180;66042;51.090;-115.340;2024-03-29T01:40:49;85767.20;;;1.10
74539;BMP180;66042;51.090;-115.340;2024-03-29T01:43:17;85767.40;;;1.10
74539;BMP180;66042;51.090;-115.340;2024-03-29T01:45:48;85770.00;;;1.00
74539;BMP180;66042;51.090;-115.340;2024-03-29T01:48:17;85776.00;;;0.90
74539;BMP180;66042;51.090;-115.340;2024-03-29T01:50:45;85782.80;;;0.90
74539;BMP180;66042;51.090;-115.340;2024-03-29T01:53:15;85783.20;;;0.82
74539;BMP180;66042;51.090;-115.340;2024-03-29T01:55:43;85787.60;;;0.80
74539;BMP180;66042;51.090;-115.340;2024-03-29T01:58:11;85787.20;;;0.70
74539;BMP180;66042;51.090;-115.340;2024-03-29T02:01:05;85790.40;;;0.70
74539;BMP180;66042;51.090;-115.340;2024-03-29T02:03:34;85785.60;;;0.60
74539;BMP180;66042;51.090;-115.340;2024-03-29T02:06:01;85785.80;;;0.50
74539;BMP180;66042;51.090;-115.340;2024-03-29T02:08:30;85787.20;;;0.50
74539;BMP180;66042;51.090;-115.340;2024-03-29T02:10:57;85786.60;;;0.50
74539;BMP180;66042;51.090;-115.340;2024-03-29T02:13:25;85790.00;;;0.40
74539;BMP180;66042;51.090;-115.340;2024-03-29T02:15:53;85789.20;;;0.30
74539;BMP180;66042;51.090;-115.340;2024-03-29T02:18:19;85791.80;;;0.30
74539;BMP180;66042;51.090;-115.340;2024-03-29T02:20:47;85794.60;;;0.20
74539;BMP180;66042;51.090;-115.340;2024-03-29T02:23:33;85796.40;;;0.20
74539;BMP180;66042;51.090;-115.340;2024-03-29T02:26:02;85798.40;;;0.10
74539;BMP180;66042;51.090;-115.340;2024-03-29T02:28:31;85803.40;;;0.10
74539;BMP180;66042;51.090;-115.340;2024-03-29T02:30:58;85808.00;;;0.00
74539;BMP180;66042;51.090;-115.340;2024-03-29T02:33:25;85817.20;;;0.00
74539;BMP180;66042;51.090;-115.340;2024-03-29T02:35:51;85822.80;;;0.00
74539;BMP180;66042;51.090;-115.340;2024-03-29T02:38:18;85826.20;;;-0.10
74539;BMP180;66042;51.090;-115.340;2024-03-29T02:40:46;85829.80;;;-0.10
74539;BMP180;66042;51.090;-115.340;2024-03-29T02:43:13;85830.40;;;-0.20
74539;BMP180;66042;51.090;-115.340;2024-03-29T02:45:40;85830.80;;;-0.20
74539;BMP180;66042;51.090;-115.340;2024-03-29T02:48:08;85835.00;;;-0.20
74539;BMP180;66042;51.090;-115.340;2024-03-29T02:50:35;85837.00;;;-0.20
74539;BMP180;66042;51.090;-115.340;2024-03-29T02:53:02;85837.60;;;-0.26
74539;BMP180;66042;51.090;-115.340;2024-03-29T02:55:29;85841.00;;;-0.30
74539;BMP180;66042;51.090;-115.340;2024-03-29T02:57:56;85841.80;;;-0.30
74539;BMP180;66042;51.090;-115.340;2024-03-29T03:00:23;85846.00;;;-0.40
74539;BMP180;66042;51.090;-115.340;2024-03-29T03:02:49;85851.60;;;-0.40
74539;BMP180;66042;51.090;-115.340;2024-03-29T03:05:16;85850.20;;;-0.40
74539;BMP180;66042;51.090;-115.340;2024-03-29T03:07:43;85851.60;;;-0.50
74539;BMP180;66042;51.090;-115.340;2024-03-29T03:10:34;85848.40;;;-0.60
74539;BMP180;66042;51.090;-115.340;2024-03-29T03:13:19;85845.20;;;-0.60
74539;BMP180;66042;51.090;-115.340;2024-03-29T03:15:46;85847.60;;;-0.60
74539;BMP180;66042;51.090;-115.340;2024-03-29T03:18:13;85845.60;;;-0.70
74539;BMP180;66042;51.090;-115.340;2024-03-29T03:20:40;85852.00;;;-0.70
74539;BMP180;66042;51.090;-115.340;2024-03-29T03:23:07;85849.80;;;-0.70
74539;BMP180;66042;51.090;-115.340;2024-03-29T03:25:35;85850.80;;;-0.80
74539;BMP180;66042;51.090;-115.340;2024-03-29T03:28:02;85853.60;;;-0.80
74539;BMP180;66042;51.090;-115.340;2024-03-29T03:30:29;85861.40;;;-0.80
74539;BMP180;66042;51.090;-115.340;2024-03-29T03:32:56;85859.60;;;-0.90
74539;BMP180;66042;51.090;-115.340;2024-03-29T03:35:23;85856.60;;;-0.90
74539;BMP180;66042;51.090;-115.340;2024-03-29T03:37:50;85859.80;;;-0.98
74539;BMP180;66042;51.090;-115.340;2024-03-29T03:40:17;85860.40;;;-0.90
74539;BMP180;66042;51.090;-115.340;2024-03-29T03:42:44;85863.40;;;-1.00
74539;BMP180;66042;51.090;-115.340;2024-03-29T03:45:12;85867.80;;;-1.00
74539;BMP180;66042;51.090;-115.340;2024-03-29T03:47:40;85865.60;;;-1.00
74539;BMP180;66042;51.090;-115.340;2024-03-29T03:50:07;85868.20;;;-1.00
74539;BMP180;66042;51.090;-115.340;2024-03-29T03:52:34;85872.40;;;-1.08
74539;BMP180;66042;51.090;-115.340;2024-03-29T03:55:01;85875.60;;;-1.10
74539;BMP180;66042;51.090;-115.340;2024-03-29T03:57:28;85878.60;;;-1.10
74539;BMP180;66042;51.090;-115.340;2024-03-29T03:59:54;85881.00;;;-1.10
74539;BMP180;66042;51.090;-115.340;2024-03-29T04:02:21;85878.60;;;-1.16
74539;BMP180;66042;51.090;-115.340;2024-03-29T04:04:48;85880.40;;;-1.20
74539;BMP180;66042;51.090;-115.340;2024-03-29T04:07:15;85880.80;;;-1.20
74539;BMP180;66042;51.090;-115.340;2024-03-29T04:09:42;85880.80;;;-1.30
74539;BMP180;66042;51.090;-115.340;2024-03-29T04:12:09;85879.20;;;-1.24
74539;BMP180;66042;51.090;-115.340;2024-03-29T04:14:36;85882.20;;;-1.24
74539;BMP180;66042;51.090;-115.340;2024-03-29T04:17:03;85881.60;;;-1.30
74539;BMP180;66042;51.090;-115.340;2024-03-29T04:19:30;85880.20;;;-1.30
74539;BMP180;66042;51.090;-115.340;2024-03-29T04:21:57;85883.80;;;-1.30
74539;BMP180;66042;51.090;-115.340;2024-03-29T04:24:24;85881.60;;;-1.30
74539;BMP180;66042;51.090;-115.340;2024-03-29T04:26:51;85882.40;;;-1.30
74539;BMP180;66042;51.090;-115.340;2024-03-29T04:29:18;85888.20;;;-1.30
74539;BMP180;66042;51.090;-115.340;2024-03-29T04:31:46;85893.00;;;-1.32
74539;BMP180;66042;51.090;-115.340;2024-03-29T04:34:13;85885.60;;;-1.40
74539;BMP180;66042;51.090;-115.340;2024-03-29T04:36:40;85890.40;;;-1.40
74539;BMP180;66042;51.090;-115.340;2024-03-29T04:39:07;85888.20;;;-1.50
74539;BMP180;66042;51.090;-115.340;2024-03-29T04:41:34;85889.60;;;-1.50
74539;BMP180;66042;51.090;-115.340;2024-03-29T04:44:01;85891.00;;;-1.60
74539;BMP180;66042;51.090;-115.340;2024-03-29T04:46:32;85893.80;;;-1.60
74539;BMP180;66042;51.090;-115.340;2024-03-29T04:48:59;85896.40;;;-1.60
74539;BMP180;66042;51.090;-115.340;2024-03-29T04:51:26;85896.40;;;-1.60
74539;BMP180;66042;51.090;-115.340;2024-03-29T04:53:53;85896.60;;;-1.60
74539;BMP180;66042;51.090;-115.340;2024-03-29T04:56:21;85901.80;;;-1.66
74539;BMP180;66042;51.090;-115.340;2024-03-29T04:58:48;85908.20;;;-1.60
74539;BMP180;66042;51.090;-115.340;2024-03-29T05:01:14;85912.20;;;-1.50
74539;BMP180;66042;51.090;-115.340;2024-03-29T05:03:41;85910.60;;;-1.50
74539;BMP180;66042;51.090;-115.340;2024-03-29T05:06:09;85913.40;;;-1.40
74539;BMP180;66042;51.090;-115.340;2024-03-29T05:08:36;85910.80;;;-1.40
74539;BMP180;66042;51.090;-115.340;2024-03-29T05:11:04;85911.00;;;-1.40
74539;BMP180;66042;51.090;-115.340;2024-03-29T05:13:31;85912.80;;;-1.50
74539;BMP180;66042;51.090;-115.340;2024-03-29T05:15:58;85914.60;;;-1.50
74539;BMP180;66042;51.090;-115.340;2024-03-29T05:18:25;85914.80;;;-1.54
74539;BMP180;66042;51.090;-115.340;2024-03-29T05:20:52;85916.00;;;-1.60
74539;BMP180;66042;51.090;-115.340;2024-03-29T05:23:19;85917.80;;;-1.60
74539;BMP180;66042;51.090;-115.340;2024-03-29T05:25:46;85920.80;;;-1.64
74539;BMP180;66042;51.090;-115.340;2024-03-29T05:28:15;85923.40;;;-1.68
74539;BMP180;66042;51.090;-115.340;2024-03-29T05:30:43;85925.60;;;-1.70
74539;BMP180;66042;51.090;-115.340;2024-03-29T05:33:10;85928.00;;;-1.80
74539;BMP180;66042;51.090;-115.340;2024-03-29T05:35:37;85931.40;;;-1.90
74539;BMP180;66042;51.090;-115.340;2024-03-29T05:38:04;85934.40;;;-1.90
74539;BMP180;66042;51.090;-115.340;2024-03-29T05:40:32;85942.20;;;-2.00
74539;BMP180;66042;51.090;-115.340;2024-03-29T05:42:59;85945.20;;;-2.00
74539;BMP180;66042;51.090;-115.340;2024-03-29T05:45:30;85942.20;;;-2.00
74539;BMP180;66042;51.090;-115.340;2024-03-29T05:47:58;85939.80;;;-2.06
74539;BMP180;66042;51.090;-115.340;2024-03-29T05:50:26;85939.00;;;-2.14
74539;BMP180;66042;51.090;-115.340;2024-03-29T05:52:53;85942.80;;;-2.20
74539;BMP180;66042;51.090;-115.340;2024-03-29T05:55:20;85937.00;;;-2.20
74539;BMP180;66042;51.090;-115.340;2024-03-29T05:57:46;85932.40;;;-2.30
74539;BMP180;66042;51.090;-115.340;2024-03-29T06:00:14;85931.40;;;-2.30
74539;BMP180;66042;51.090;-115.340;2024-03-29T06:02:42;85935.20;;;-2.30
74539;BMP180;66042;51.090;-115.340;2024-03-29T06:05:11;85934.60;;;-2.30
74539;BMP180;66042;51.090;-115.340;2024-03-29T06:07:38;85930.60;;;-2.30
74539;BMP180;66042;51.090;-115.340;2024-03-29T06:10:05;85931.40;;;-2.30
74539;BMP180;66042;51.090;-115.340;2024-03-29T06:12:33;85927.40;;;-2.30
74539;BMP180;66042;51.090;-115.340;2024-03-29T06:15:09;85927.00;;;-2.30
74539;BMP180;66042;51.090;-115.340;2024-03-29T06:17:54;85931.20;;;-2.30
74539;BMP180;66042;51.090;-115.340;2024-03-29T06:20:21;85935.00;;;-2.30
74539;BMP180;66042;51.090;-115.340;2024-03-29T06:22:47;85933.80;;;-2.30
74539;BMP180;66042;51.090;-115.340;2024-03-29T06:25:15;85932.60;;;-2.30
74539;BMP180;66042;51.090;-115.340;2024-03-29T06:27:42;85931.60;;;-2.34
74539;BMP180;66042;51.090;-115.340;2024-03-29T06:30:15;85932.00;;;-2.40
74539;BMP180;66042;51.090;-115.340;2024-03-29T06:32:46;85929.80;;;-2.40
74539;BMP180;66042;51.090;-115.340;2024-03-29T06:35:13;85930.20;;;-2.42
74539;BMP180;66042;51.090;-115.340;2024-03-29T06:37:40;85931.00;;;-2.50
74539;BMP180;66042;51.090;-115.340;2024-03-29T06:40:09;85925.20;;;-2.50
74539;BMP180;66042;51.090;-115.340;2024-03-29T06:42:35;85929.20;;;-2.50
74539;BMP180;66042;51.090;-115.340;2024-03-29T06:45:02;85927.00;;;-2.50
74539;BMP180;66042;51.090;-115.340;2024-03-29T06:47:32;85930.00;;;-2.50
74539;BMP180;66042;51.090;-115.340;2024-03-29T06:49:59;85927.60;;;-2.50
74539;BMP180;66042;51.090;-115.340;2024-03-29T06:52:27;85932.60;;;-2.50
74539;BMP180;66042;51.090;-115.340;2024-03-29T06:54:54;85934.00;;;-2.50
74539;BMP180;66042;51.090;-115.340;2024-03-29T06:57:21;85936.60;;;-2.56
74539;BMP180;66042;51.090;-115.340;2024-03-29T06:59:52;85939.80;;;-2.58
74539;BMP180;66042;51.090;-115.340;2024-03-29T07:02:19;85942.40;;;-2.60
74539;BMP180;66042;51.090;-115.340;2024-03-29T07:04:46;85948.40;;;-2.60
74539;BMP180;66042;51.090;-115.340;2024-03-29T07:07:12;85950.80;;;-2.60
74539;BMP180;66042;51.090;-115.340;2024-03-29T07:09:40;85950.60;;;-2.64
74539;BMP180;66042;51.090;-115.340;2024-03-29T07:12:07;85951.40;;;-2.70
74539;BMP180;66042;51.090;-115.340;2024-03-29T07:14:34;85949.80;;;-2.70
74539;BMP180;66042;51.090;-115.340;2024-03-29T07:17:02;85956.40;;;-2.70
74539;BMP180;66042;51.090;-115.340;2024-03-29T07:19:29;85952.80;;;-2.80
74539;BMP180;66042;51.090;-115.340;2024-03-29T07:21:56;85957.40;;;-2.80
74539;BMP180;66042;51.090;-115.340;2024-03-29T07:24:23;85958.00;;;-2.80
74539;BMP180;66042;51.090;-115.340;2024-03-29T07:26:50;85962.20;;;-2.82
74539;BMP180;66042;51.090;-115.340;2024-03-29T07:29:17;85962.40;;;-2.88
74539;BMP180;66042;51.090;-115.340;2024-03-29T07:31:44;85969.80;;;-2.90
74539;BMP180;66042;51.090;-115.340;2024-03-29T07:34:11;85965.60;;;-2.90
74539;BMP180;66042;51.090;-115.340;2024-03-29T07:36:38;85972.60;;;-2.90
74539;BMP180;66042;51.090;-115.340;2024-03-29T07:39:07;85975.00;;;-2.96
74539;BMP180;66042;51.090;-115.340;2024-03-29T07:41:34;85977.40;;;-3.00
74539;BMP180;66042;51.090;-115.340;2024-03-29T07:44:01;85978.20;;;-3.00
74539;BMP180;66042;51.090;-115.340;2024-03-29T07:46:36;85974.80;;;-3.00
74539;BMP180;66042;51.090;-115.340;2024-03-29T07:49:04;85977.20;;;-3.00
74539;BMP180;66042;51.090;-115.340;2024-03-29T07:51:31;85974.80;;;-3.00
74539;BMP180;66042;51.090;-115.340;2024-03-29T07:53:58;85983.00;;;-3.00
74539;BMP180;66042;51.090;-115.340;2024-03-29T07:56:25;85985.60;;;-3.10
74539;BMP180;66042;51.090;-115.340;2024-03-29T07:58:56;85980.40;;;-3.10
74539;BMP180;66042;51.090;-115.340;2024-03-29T08:01:23;85980.20;;;-3.16
74539;BMP180;66042;51.090;-115.340;2024-03-29T08:03:53;85979.00;;;-3.20
74539;BMP180;66042;51.090;-115.340;2024-03-29T08:06:21;85982.20;;;-3.20
74539;BMP180;66042;51.090;-115.340;2024-03-29T08:08:50;85983.80;;;-3.24
74539;BMP180;66042;51.090;-115.340;2024-03-29T08:11:17;85985.60;;;-3.22
74539;BMP180;66042;51.090;-115.340;2024-03-29T08:13:44;85990.80;;;-3.20
74539;BMP180;66042;51.090;-115.340;2024-03-29T08:16:13;85994.80;;;-3.20
74539;BMP180;66042;51.090;-115.340;2024-03-29T08:18:45;85998.20;;;-3.20
74539;BMP180;66042;51.090;-115.340;2024-03-29T08:21:14;86003.00;;;-3.20
74539;BMP180;66042;51.090;-115.340;2024-03-29T08:23:41;86001.40;;;-3.24
74539;BMP180;66042;51.090;-115.340;2024-03-29T08:26:12;86002.40;;;-3.30
74539;BMP180;66042;51.090;-115.340;2024-03-29T08:28:40;86001.00;;;-3.26
74539;BMP180;66042;51.090;-115.340;2024-03-29T08:31:07;86001.40;;;-3.26
74539;BMP180;66042;51.090;-115.340;2024-03-29T08:33:37;85998.00;;;-3.24
74539;BMP180;66042;51.090;-115.340;2024-03-29T08:36:07;85999.60;;;-3.20
74539;BMP180;66042;51.090;-115.340;2024-03-29T08:38:35;86000.40;;;-3.20
74539;BMP180;66042;51.090;-115.340;2024-03-29T08:41:03;86002.20;;;-3.20
74539;BMP180;66042;51.090;-115.340;2024-03-29T08:43:29;86000.20;;;-3.20
74539;BMP180;66042;51.090;-115.340;2024-03-29T08:45:56;86001.00;;;-3.20
74539;BMP180;66042;51.090;-115.340;2024-03-29T08:48:26;86009.40;;;-3.22
74539;BMP180;66042;51.090;-115.340;2024-03-29T08:50:53;86008.40;;;-3.20
74539;BMP180;66042;51.090;-115.340;2024-03-29T08:53:20;86005.80;;;-3.30
74539;BMP180;66042;51.090;-115.340;2024-03-29T08:55:53;86003.80;;;-3.30
74539;BMP180;66042;51.090;-115.340;2024-03-29T08:58:20;86003.00;;;-3.30
74539;BMP180;66042;51.090;-115.340;2024-03-29T09:00:56;86007.80;;;-3.30
74539;BMP180;66042;51.090;-115.340;2024-03-29T09:03:24;86013.40;;;-3.34
74539;BMP180;66042;51.090;-115.340;2024-03-29T09:05:52;86012.20;;;-3.30
74539;BMP180;66042;51.090;-115.340;2024-03-29T09:08:19;86011.60;;;-3.40
74539;BMP180;66042;51.090;-115.340;2024-03-29T09:10:47;86015.80;;;-3.40
74539;BMP180;66042;51.090;-115.340;2024-03-29T09:13:14;86017.60;;;-3.40
74539;BMP180;66042;51.090;-115.340;2024-03-29T09:15:41;86019.20;;;-3.40
74539;BMP180;66042;51.090;-115.340;2024-03-29T09:18:08;86019.40;;;-3.48
74539;BMP180;66042;51.090;-115.340;2024-03-29T09:20:59;86019.60;;;-3.50
74539;BMP180;66042;51.090;-115.340;2024-03-29T09:23:27;86020.00;;;-3.52
74539;BMP180;66042;51.090;-115.340;2024-03-29T09:25:58;86021.40;;;-3.60
74539;BMP180;66042;51.090;-115.340;2024-03-29T09:28:25;86024.00;;;-3.60
74539;BMP180;66042;51.090;-115.340;2024-03-29T09:30:59;86027.00;;;-3.60
74539;BMP180;66042;51.090;-115.340;2024-03-29T09:33:26;86025.20;;;-3.60
74539;BMP180;66042;51.090;-115.340;2024-03-29T09:35:54;86023.00;;;-3.60
74539;BMP180;66042;51.090;-115.340;2024-03-29T09:38:22;86024.40;;;-3.62
74539;BMP180;66042;51.090;-115.340;2024-03-29T09:43:30;86021.40;;;-3.70
74539;BMP180;66042;51.090;-115.340;2024-03-29T09:45:59;86019.40;;;-3.70
74539;BMP180;66042;51.090;-115.340;2024-03-29T09:48:26;86023.60;;;-3.80
74539;BMP180;66042;51.090;-115.340;2024-03-29T09:50:56;86018.20;;;-3.80
74539;BMP180;66042;51.090;-115.340;2024-03-29T09:53:24;86021.20;;;-3.80
74539;BMP180;66042;51.090;-115.340;2024-03-29T09:55:53;86021.00;;;-3.80
74539;BMP180;66042;51.090;-115.340;2024-03-29T09:58:20;86024.40;;;-3.80
74539;BMP180;66042;51.090;-115.340;2024-03-29T10:00:47;86021.80;;;-3.80
74539;BMP180;66042;51.090;-115.340;2024-03-29T10:03:14;86025.80;;;-3.80
74539;BMP180;66042;51.090;-115.340;2024-03-29T10:05:47;86023.80;;;-3.94
74539;BMP180;66042;51.090;-115.340;2024-03-29T10:08:14;86022.00;;;-3.92
74539;BMP180;66042;51.090;-115.340;2024-03-29T10:10:42;86023.00;;;-4.00
74539;BMP180;66042;51.090;-115.340;2024-03-29T10:13:09;86027.40;;;-4.00
74539;BMP180;66042;51.090;-115.340;2024-03-29T10:15:36;86030.80;;;-3.92
74539;BMP180;66042;51.090;-115.340;2024-03-29T10:18:08;86028.40;;;-3.92
74539;BMP180;66042;51.090;-115.340;2024-03-29T10:20:36;86026.20;;;-4.00
74539;BMP180;66042;51.090;-115.340;2024-03-29T10:23:03;86025.40;;;-4.00
74539;BMP180;66042;51.090;-115.340;2024-03-29T10:25:33;86028.20;;;-4.02
74539;BMP180;66042;51.090;-115.340;2024-03-29T10:28:03;86031.40;;;-4.08
74539;BMP180;66042;51.090;-115.340;2024-03-29T10:30:31;86028.80;;;-4.10
74539;BMP180;66042;51.090;-115.340;2024-03-29T10:32:58;86025.80;;;-4.10
74539;BMP180;66042;51.090;-115.340;2024-03-29T10:35:28;86027.40;;;-4.10
74539;BMP180;66042;51.090;-115.340;2024-03-29T10:37:55;86030.00;;;-4.16
74539;BMP180;66042;51.090;-115.340;2024-03-29T10:40:22;86030.00;;;-4.18
74539;BMP180;66042;51.090;-115.340;2024-03-29T10:42:52;86030.80;;;-4.16
74539;BMP180;66042;51.090;-115.340;2024-03-29T10:45:21;86030.40;;;-4.20
74539;BMP180;66042;51.090;-115.340;2024-03-29T10:47:51;86033.00;;;-4.20
74539;BMP180;66042;51.090;-115.340;2024-03-29T10:50:21;86032.80;;;-4.20
74539;BMP180;66042;51.090;-115.340;2024-03-29T10:52:50;86036.20;;;-4.20
74539;BMP180;66042;51.090;-115.340;2024-03-29T10:55:17;86037.40;;;-4.20
74539;BMP180;66042;51.090;-115.340;2024-03-29T10:57:47;86033.20;;;-4.20
74539;BMP180;66042;51.090;-115.340;2024-03-29T11:00:16;86032.40;;;-4.22
74539;BMP180;66042;51.090;-115.340;2024-03-29T11:05:49;86034.60;;;-4.30
74539;BMP180;66042;51.090;-115.340;2024-03-29T11:08:24;86030.40;;;-4.30
74539;BMP180;66042;51.090;-115.340;2024-03-29T11:10:57;86031.40;;;-4.30
74539;BMP180;66042;51.090;-115.340;2024-03-29T11:13:49;86035.40;;;-4.30
74539;BMP180;66042;51.090;-115.340;2024-03-29T11:16:19;86036.40;;;-4.40
74539;BMP180;66042;51.090;-115.340;2024-03-29T11:18:47;86039.00;;;-4.40
74539;BMP180;66042;51.090;-115.340;2024-03-29T11:21:16;86039.20;;;-4.40
74539;BMP180;66042;51.090;-115.340;2024-03-29T11:23:52;86049.60;;;-4.40
74539;BMP180;66042;51.090;-115.340;2024-03-29T11:26:20;86047.80;;;-4.50
74539;BMP180;66042;51.090;-115.340;2024-03-29T11:28:52;86048.60;;;-4.50
74539;BMP180;66042;51.090;-115.340;2024-03-29T11:31:24;86050.20;;;-4.50
74539;BMP180;66042;51.090;-115.340;2024-03-29T11:33:51;86045.80;;;-4.60
74539;BMP180;66042;51.090;-115.340;2024-03-29T11:36:28;86048.20;;;-4.70
74539;BMP180;66042;51.090;-115.340;2024-03-29T11:38:59;86050.20;;;-4.78
74539;BMP180;66042;51.090;-115.340;2024-03-29T11:41:27;86049.60;;;-4.80
74539;BMP180;66042;51.090;-115.340;2024-03-29T11:43:56;86048.20;;;-4.70
74539;BMP180;66042;51.090;-115.340;2024-03-29T11:46:24;86054.80;;;-4.70
74539;BMP180;66042;51.090;-115.340;2024-03-29T11:48:51;86051.60;;;-4.70
74539;BMP180;66042;51.090;-115.340;2024-03-29T11:51:21;86054.00;;;-4.70
74539;BMP180;66042;51.090;-115.340;2024-03-29T11:53:50;86054.60;;;-4.70
74539;BMP180;66042;51.090;-115.340;2024-03-29T11:56:19;86059.80;;;-4.70
74539;BMP180;66042;51.090;-115.340;2024-03-29T11:58:47;86064.80;;;-4.70
74539;BMP180;66042;51.090;-115.340;2024-03-29T12:01:18;86057.00;;;-4.70
74539;BMP180;66042;51.090;-115.340;2024-03-29T12:03:45;86064.80;;;-4.70
74539;BMP180;66042;51.090;-115.340;2024-03-29T12:06:15;86064.00;;;-4.80
74539;BMP180;66042;51.090;-115.340;2024-03-29T12:08:43;86062.20;;;-4.80
74539;BMP180;66042;51.090;-115.340;2024-03-29T12:11:10;86064.60;;;-4.80
74539;BMP180;66042;51.090;-115.340;2024-03-29T12:13:37;86066.80;;;-4.70
74539;BMP180;66042;51.090;-115.340;2024-03-29T12:16:08;86061.60;;;-4.70
74539;BMP180;66042;51.090;-115.340;2024-03-29T12:18:35;86063.60;;;-4.68
74539;BMP180;66042;51.090;-115.340;2024-03-29T12:21:03;86064.80;;;-4.60
74539;BMP180;66042;51.090;-115.340;2024-03-29T12:23:30;86062.80;;;-4.60
74539;BMP180;66042;51.090;-115.340;2024-03-29T12:25:58;86059.80;;;-4.52
74539;BMP180;66042;51.090;-115.340;2024-03-29T12:28:26;86055.40;;;-4.50
74539;BMP180;66042;51.090;-115.340;2024-03-29T12:30:54;86050.80;;;-4.50
74539;BMP180;66042;51.090;-115.340;2024-03-29T12:33:23;86050.20;;;-4.42
74539;BMP180;66042;51.090;-115.340;2024-03-29T12:35:52;86057.20;;;-4.40
74539;BMP180;66042;51.090;-115.340;2024-03-29T12:38:22;86053.20;;;-4.40
74539;BMP180;66042;51.090;-115.340;2024-03-29T12:40:50;86056.20;;;-4.40
74539;BMP180;66042;51.090;-115.340;2024-03-29T12:43:22;86058.80;;;-4.40
74539;BMP180;66042;51.090;-115.340;2024-03-29T12:45:50;86058.60;;;-4.40
74539;BMP180;66042;51.090;-115.340;2024-03-29T12:48:22;86059.20;;;-4.40
74539;BMP180;66042;51.090;-115.340;2024-03-29T12:50:49;86055.00;;;-4.40
74539;BMP180;66042;51.090;-115.340;2024-03-29T12:53:17;86053.40;;;-4.40
74539;BMP180;66042;51.090;-115.340;2024-03-29T12:55:46;86061.20;;;-4.40
74539;BMP180;66042;51.090;-115.340;2024-03-29T12:58:15;86059.20;;;-4.40
74539;BMP180;66042;51.090;-115.340;2024-03-29T13:00:45;86052.00;;;-4.50
74539;BMP180;66042;51.090;-115.340;2024-03-29T13:03:12;86055.20;;;-4.50
74539;BMP180;66042;51.090;-115.340;2024-03-29T13:05:40;86052.80;;;-4.50
74539;BMP180;66042;51.090;-115.340;2024-03-29T13:08:14;86048.40;;;-4.50
74539;BMP180;66042;51.090;-115.340;2024-03-29T13:10:45;86050.60;;;-4.50
74539;BMP180;66042;51.090;-115.340;2024-03-29T13:13:12;86049.60;;;-4.60
74539;BMP180;66042;51.090;-115.340;2024-03-29T13:15:39;86049.60;;;-4.68
74539;BMP180;66042;51.090;-115.340;2024-03-29T13:18:12;86051.40;;;-4.70
74539;BMP180;66042;51.090;-115.340;2024-03-29T13:20:42;86056.60;;;-4.70
74539;BMP180;66042;51.090;-115.340;2024-03-29T13:23:09;86054.60;;;-4.70
74539;BMP180;66042;51.090;-115.340;2024-03-29T13:25:37;86051.60;;;-4.70
74539;BMP180;66042;51.090;-115.340;2024-03-29T13:28:04;86053.60;;;-4.70
74539;BMP180;66042;51.090;-115.340;2024-03-29T13:30:34;86057.60;;;-4.70
74539;BMP180;66042;51.090;-115.340;2024-03-29T13:33:03;86055.80;;;-4.70
74539;BMP180;66042;51.090;-115.340;2024-03-29T13:35:31;86053.60;;;-4.80
74539;BMP180;66042;51.090;-115.340;2024-03-29T13:38:00;86057.80;;;-4.80
74539;BMP180;66042;51.090;-115.340;2024-03-29T13:40:27;86058.40;;;-4.80
74539;BMP180;66042;51.090;-115.340;2024-03-29T13:42:55;86057.00;;;-4.80
74539;BMP180;66042;51.090;-115.340;2024-03-29T13:45:22;86056.60;;;-4.80